createdAt,value
2022-07-30T00:06:02.990Z,78
2022-07-30T00:16:05.249Z,79
2022-07-30T00:26:07.229Z,80
2022-07-30T00:36:08.972Z,81
2022-07-30T00:46:11.616Z,82
2022-07-30T00:56:13.469Z,82
2022-07-30T01:06:15.709Z,84
2022-07-30T01:16:18.259Z,84
2022-07-30T01:26:20.359Z,85
2022-07-30T01:36:22.496Z,86
2022-07-30T02:06:29.731Z,87
2022-07-30T02:16:31.857Z,88
2022-07-30T02:26:33.991Z,88
2022-07-30T02:36:36.071Z,89
2022-07-30T02:56:39.832Z,90
2022-07-30T03:06:41.569Z,90
2022-07-30T03:16:44.087Z,90
2022-07-30T03:26:46.488Z,91
2022-07-30T03:36:48.946Z,91
2022-07-30T03:46:51.334Z,91
2022-07-30T03:56:53.612Z,91
2022-07-30T04:06:55.252Z,92
2022-07-30T04:16:57.201Z,92
2022-07-30T04:26:59.787Z,92
2022-07-30T04:47:03.922Z,93
2022-07-30T04:57:06.046Z,93
2022-07-30T05:07:08.251Z,93
2022-07-30T05:17:10.308Z,92
2022-07-30T05:37:14.859Z,89
2022-07-30T05:47:16.893Z,88
2022-07-30T05:57:18.767Z,87
2022-07-30T06:07:20.630Z,87
2022-07-30T06:17:22.734Z,86
2022-07-30T06:27:25.253Z,86
2022-07-30T06:37:53.975Z,86
2022-07-30T06:47:29.810Z,85
2022-07-30T06:57:32.421Z,85
2022-07-30T07:07:41.644Z,85
2022-07-30T07:17:37.023Z,87
2022-07-30T07:37:40.982Z,91
2022-07-30T07:47:43.191Z,91
2022-07-30T07:50:21.553Z,91
2022-07-30T07:57:54.979Z,92
2022-07-30T08:07:56.677Z,92
2022-07-30T08:17:58.461Z,91
2022-07-30T08:28:00.629Z,90
2022-07-30T08:48:04.604Z,85
2022-07-30T09:28:15.618Z,72
2022-07-30T09:48:17.007Z,64
2022-07-30T09:58:26.881Z,61
2022-07-30T10:48:30.033Z,51
2022-07-30T10:58:32.494Z,49
2022-07-30T11:08:36.058Z,48
2022-07-30T11:18:37.586Z,48
2022-07-30T11:38:42.243Z,47
2022-07-30T11:48:44.408Z,46
2022-07-30T11:58:46.711Z,44
2022-07-30T12:08:48.796Z,41
2022-07-30T12:18:50.598Z,39
2022-07-30T12:28:52.381Z,37
2022-07-30T12:38:54.386Z,36
2022-07-30T12:48:56.889Z,37
2022-07-30T12:58:59.384Z,36
2022-07-30T13:19:03.440Z,35
2022-07-30T13:29:06.039Z,34
2022-07-30T13:39:08.159Z,32
2022-07-30T13:49:10.422Z,31
2022-07-30T13:59:12.777Z,32
2022-07-30T14:09:15.386Z,34
2022-07-30T14:19:23.221Z,35
2022-07-30T14:29:19.394Z,35
2022-07-30T14:39:21.484Z,35
2022-07-30T14:49:23.995Z,35
2022-07-30T14:59:25.081Z,34
2022-07-30T15:09:27.082Z,34
2022-07-30T15:39:33.709Z,32
2022-07-30T16:19:41.088Z,35
2022-07-30T16:39:44.905Z,36
2022-07-30T16:49:47.392Z,37
2022-07-30T17:19:53.733Z,38
2022-07-30T17:29:55.467Z,38
2022-07-30T18:00:01.558Z,40
2022-07-30T18:20:05.355Z,42
2022-07-30T18:30:07.380Z,42
2022-07-30T18:40:09.370Z,42
2022-07-30T19:00:31.002Z,44
2022-07-30T19:10:15.697Z,44
2022-07-30T19:40:22.547Z,46
2022-07-30T19:50:26.090Z,47
2022-07-30T20:00:26.495Z,48
2022-07-30T20:10:29.460Z,48
2022-07-30T20:20:30.700Z,49
2022-07-30T20:30:32.942Z,50
2022-07-30T20:40:34.798Z,50
2022-07-30T20:50:36.968Z,51
2022-07-30T21:00:39.473Z,52
2022-07-30T21:40:47.703Z,53
2022-07-30T21:50:49.546Z,54
2022-07-30T22:00:51.859Z,54
2022-07-30T22:10:54.264Z,54
2022-07-30T22:30:59.454Z,55
2022-07-30T23:11:08.104Z,57
2022-07-30T23:41:14.755Z,58
